createdAt,value
2022-12-16T00:04:47.479Z,3.36
2022-12-16T00:09:49.963Z,3.22
2022-12-16T00:14:54.150Z,3.17
2022-12-16T00:19:57.389Z,2.93
2022-12-16T00:24:59.983Z,2.89
2022-12-16T00:30:02.487Z,3.19
2022-12-16T00:35:05.171Z,2.96
2022-12-16T00:40:08.139Z,3.11
2022-12-16T00:45:11.731Z,3.13
2022-12-16T00:50:14.216Z,3.34
2022-12-16T00:55:17.945Z,3.23
2022-12-16T01:00:22.482Z,3.15
2022-12-16T01:05:27.077Z,3.21
2022-12-16T01:10:29.679Z,3.31
2022-12-16T01:15:32.115Z,2.93
2022-12-16T01:20:34.588Z,3.04
2022-12-16T01:25:37.061Z,2.97
2022-12-16T01:30:39.534Z,2.96
2022-12-16T01:35:54.911Z,2.97
2022-12-16T01:40:58.866Z,3.02
2022-12-16T01:46:18.124Z,3.33
2022-12-16T01:51:31.455Z,2.82
2022-12-16T01:56:40.604Z,2.78
2022-12-16T02:01:43.318Z,2.82
2022-12-16T02:06:45.863Z,2.77
2022-12-16T02:11:57.152Z,3.00
2022-12-16T02:17:21.515Z,3.40
2022-12-16T02:23:01.540Z,3.21
2022-12-16T02:28:22.685Z,3.27
2022-12-16T02:34:09.176Z,3.08
2022-12-16T02:39:30.085Z,3.29
2022-12-16T02:44:58.378Z,3.00
2022-12-16T02:50:01.125Z,2.91
2022-12-16T02:55:09.119Z,2.89
2022-12-16T03:00:16.115Z,2.61
2022-12-16T03:05:43.027Z,2.68
2022-12-16T03:10:49.764Z,2.65
2022-12-16T03:15:56.577Z,2.59
2022-12-16T03:21:06.458Z,2.16
2022-12-16T03:26:16.118Z,2.54
2022-12-16T03:31:30.419Z,2.99
2022-12-16T03:36:37.823Z,2.64
2022-12-16T03:41:43.819Z,2.43
2022-12-16T03:46:47.739Z,2.59
2022-12-16T03:51:50.283Z,2.57
2022-12-16T03:56:52.747Z,2.47
2022-12-16T04:01:55.329Z,2.90
2022-12-16T04:07:16.462Z,2.74
2022-12-16T04:12:38.254Z,2.89
2022-12-16T04:17:59.687Z,2.89
2022-12-16T04:23:20.889Z,2.98
2022-12-16T04:28:25.856Z,3.01
2022-12-16T04:34:01.314Z,3.13
2022-12-16T04:39:22.387Z,2.90
2022-12-16T04:44:43.412Z,2.97
2022-12-16T04:50:04.762Z,2.92
2022-12-16T04:55:26.685Z,2.91
2022-12-16T05:00:47.875Z,2.81
2022-12-16T05:06:09.034Z,2.57
2022-12-16T05:11:30.299Z,2.80
2022-12-16T05:16:51.508Z,2.90
2022-12-16T05:22:12.642Z,2.98
2022-12-16T05:27:34.041Z,2.80
2022-12-16T05:32:55.375Z,2.92
2022-12-16T05:38:16.760Z,3.04
2022-12-16T05:43:38.098Z,3.14
2022-12-16T05:48:59.299Z,2.93
2022-12-16T05:54:20.443Z,3.03
2022-12-16T05:59:41.582Z,2.99
2022-12-16T06:05:02.820Z,2.95
2022-12-16T06:10:24.089Z,2.71
2022-12-16T06:15:45.118Z,2.81
2022-12-16T06:21:06.599Z,2.80
2022-12-16T06:26:27.671Z,2.99
2022-12-16T06:31:49.166Z,3.00
2022-12-16T06:37:10.383Z,3.23
2022-12-16T06:42:31.840Z,3.25
2022-12-16T06:47:52.913Z,3.10
2022-12-16T06:53:14.064Z,3.19
2022-12-16T06:58:34.949Z,3.19
2022-12-16T07:03:56.274Z,3.19
2022-12-16T07:09:17.934Z,3.16
2022-12-16T07:14:38.952Z,3.21
2022-12-16T07:20:00.219Z,3.29
2022-12-16T07:25:21.234Z,3.18
2022-12-16T07:30:42.295Z,3.21
2022-12-16T07:36:03.543Z,3.35
2022-12-16T07:41:24.509Z,3.18
2022-12-16T07:46:45.713Z,3.20
2022-12-16T07:52:06.848Z,3.20
2022-12-16T07:57:28.211Z,3.24
2022-12-16T08:02:49.568Z,3.30
2022-12-16T08:08:10.660Z,3.37
2022-12-16T08:13:31.880Z,3.50
2022-12-16T08:18:53.325Z,3.46
2022-12-16T08:24:15.712Z,3.59
2022-12-16T08:29:45.355Z,3.59
2022-12-16T08:35:07.144Z,3.67
2022-12-16T08:40:36.571Z,3.49
2022-12-16T08:45:58.499Z,3.36
2022-12-16T08:51:41.098Z,3.48
2022-12-16T08:57:02.218Z,3.55
2022-12-16T09:02:23.698Z,3.52
2022-12-16T09:07:44.715Z,3.80
2022-12-16T09:13:05.903Z,3.76
2022-12-16T09:18:27.202Z,3.71
2022-12-16T09:23:48.218Z,3.67
2022-12-16T09:29:09.615Z,3.69
2022-12-16T09:34:30.615Z,3.95
2022-12-16T09:39:51.820Z,4.15
2022-12-16T09:45:45.025Z,4.23
2022-12-16T09:51:07.175Z,4.07
2022-12-16T09:56:37.446Z,4.08
2022-12-16T10:01:58.884Z,4.15
2022-12-16T10:07:20.755Z,3.93
2022-12-16T10:12:57.231Z,3.95
2022-12-16T10:18:32.522Z,4.03
2022-12-16T10:24:13.232Z,4.27
2022-12-16T10:29:43.845Z,4.02
2022-12-16T10:35:27.732Z,4.06
2022-12-16T10:40:52.467Z,4.08
2022-12-16T10:46:17.006Z,4.38
2022-12-16T10:51:41.522Z,4.34
2022-12-16T10:57:42.135Z,4.19
2022-12-16T11:03:16.984Z,4.36
2022-12-16T11:08:47.797Z,4.05
2022-12-16T11:14:09.666Z,4.41
2022-12-16T11:19:41.306Z,4.64
2022-12-16T11:25:02.514Z,4.46
2022-12-16T11:30:43.967Z,4.50
2022-12-16T11:36:18.132Z,4.35
2022-12-16T11:42:03.607Z,4.64
2022-12-16T11:47:45.597Z,4.76
2022-12-16T11:53:13.660Z,5.18
2022-12-16T11:58:56.953Z,5.11
2022-12-16T12:04:18.473Z,5.00
2022-12-16T12:09:45.775Z,4.62
2022-12-16T12:15:11.700Z,4.82
2022-12-16T12:21:00.093Z,4.86
2022-12-16T12:26:26.903Z,5.03
2022-12-16T12:32:17.456Z,4.89
2022-12-16T12:38:20.580Z,4.98
2022-12-16T12:43:57.354Z,4.98
2022-12-16T12:49:33.358Z,4.85
2022-12-16T12:55:30.743Z,4.78
2022-12-16T13:00:58.582Z,4.82
2022-12-16T13:06:21.032Z,4.99
2022-12-16T13:11:42.923Z,4.75
2022-12-16T13:17:04.172Z,4.43
2022-12-16T13:22:44.118Z,4.56
2022-12-16T13:28:15.469Z,4.85
2022-12-16T13:33:46.439Z,4.94
2022-12-16T13:39:09.876Z,4.68
2022-12-16T13:44:51.568Z,4.54
2022-12-16T13:50:12.904Z,4.55
2022-12-16T13:55:57.995Z,4.33
2022-12-16T14:01:28.499Z,4.40
2022-12-16T14:06:53.477Z,4.46
2022-12-16T14:12:24.327Z,4.28
2022-12-16T14:17:59.196Z,4.18
2022-12-16T14:23:58.993Z,4.78
2022-12-16T14:29:22.539Z,4.90
2022-12-16T14:34:54.494Z,4.58
2022-12-16T14:40:16.232Z,5.19
2022-12-16T14:45:55.394Z,5.10
2022-12-16T14:51:16.362Z,5.14
2022-12-16T14:56:40.871Z,4.59
2022-12-16T15:02:01.821Z,4.21
2022-12-16T15:07:31.479Z,4.17
2022-12-16T15:13:00.303Z,3.78
2022-12-16T15:18:22.535Z,2.68
2022-12-16T15:23:49.738Z,2.44
2022-12-16T15:29:11.633Z,3.46
2022-12-16T15:34:48.625Z,3.46
2022-12-16T15:40:09.193Z,3.68
2022-12-16T15:45:51.553Z,3.43
2022-12-16T15:51:29.211Z,3.61
2022-12-16T15:57:03.736Z,3.47
2022-12-16T16:02:44.023Z,2.17
2022-12-16T16:08:05.936Z,2.55
2022-12-16T16:13:28.513Z,2.11
2022-12-16T16:18:49.277Z,2.51
2022-12-16T16:27:32.728Z,3.15
2022-12-16T16:32:53.601Z,2.45
2022-12-16T16:38:18.395Z,2.91
2022-12-16T16:43:40.521Z,3.09
2022-12-16T16:49:01.397Z,2.83
2022-12-16T16:54:22.069Z,2.85
2022-12-16T16:59:43.219Z,2.27
2022-12-16T17:05:03.943Z,2.00
2022-12-16T17:10:25.374Z,1.96
2022-12-16T17:15:54.439Z,3.17
2022-12-16T17:21:15.215Z,3.49
2022-12-16T17:26:36.562Z,3.18
2022-12-16T17:31:57.274Z,3.48
2022-12-16T17:37:17.997Z,3.48
2022-12-16T17:42:44.715Z,3.65
2022-12-16T17:48:07.087Z,3.68
2022-12-16T17:53:27.754Z,3.74
2022-12-16T17:58:57.027Z,3.97
2022-12-16T18:04:18.094Z,3.97
2022-12-16T18:09:39.648Z,3.78
2022-12-16T18:15:00.387Z,4.11
2022-12-16T18:20:21.071Z,4.19
2022-12-16T18:25:41.562Z,4.08
2022-12-16T18:31:02.194Z,4.10
2022-12-16T18:36:23.579Z,4.07
2022-12-16T18:41:44.150Z,4.06
2022-12-16T18:47:06.216Z,3.95
2022-12-16T18:52:29.730Z,4.00
2022-12-16T18:57:50.474Z,3.70
2022-12-16T19:03:11.265Z,3.92
2022-12-16T19:08:32.279Z,3.45
2022-12-16T19:13:53.323Z,3.72
2022-12-16T19:19:19.367Z,3.06
2022-12-16T19:24:40.833Z,3.04
2022-12-16T19:30:01.624Z,2.57
2022-12-16T19:35:22.642Z,2.58
2022-12-16T19:40:43.440Z,2.21
2022-12-16T19:46:14.015Z,2.60
2022-12-16T19:51:34.577Z,2.21
2022-12-16T19:56:55.396Z,2.68
2022-12-16T20:02:16.094Z,3.04
2022-12-16T20:07:37.229Z,2.11
2022-12-16T20:12:57.676Z,2.59
2022-12-16T20:18:18.302Z,2.56
2022-12-16T20:23:40.094Z,2.44
2022-12-16T20:29:01.862Z,3.13
2022-12-16T20:34:22.569Z,3.02
2022-12-16T20:39:49.450Z,2.72
2022-12-16T20:45:13.800Z,3.21
2022-12-16T20:50:34.142Z,2.35
2022-12-16T20:55:56.127Z,2.28
2022-12-16T21:01:16.850Z,3.03
2022-12-16T21:06:37.874Z,2.91
2022-12-16T21:11:58.488Z,3.41
2022-12-16T21:17:19.301Z,3.65
2022-12-16T21:22:40.391Z,3.45
2022-12-16T21:28:01.001Z,3.48
2022-12-16T21:33:21.709Z,3.47
2022-12-16T21:38:42.301Z,3.43
2022-12-16T21:44:03.173Z,3.56
2022-12-16T21:49:23.574Z,3.44
2022-12-16T21:54:44.398Z,3.25
2022-12-16T22:00:05.046Z,2.87
2022-12-16T22:05:31.009Z,3.41
2022-12-16T22:10:51.867Z,3.57
2022-12-16T22:16:18.377Z,3.66
2022-12-16T22:21:39.495Z,3.30
2022-12-16T22:27:00.176Z,3.21
2022-12-16T22:32:21.032Z,3.12
2022-12-16T22:37:41.459Z,2.84
2022-12-16T22:43:02.119Z,2.34
2022-12-16T22:48:23.015Z,2.65
2022-12-16T22:53:45.125Z,2.44
2022-12-16T22:59:07.656Z,1.16
2022-12-16T23:04:29.303Z,1.54
2022-12-16T23:09:50.153Z,2.03
2022-12-16T23:15:15.473Z,2.57
2022-12-16T23:20:36.183Z,2.19
2022-12-16T23:25:57.100Z,1.77
2022-12-16T23:31:18.155Z,1.00
2022-12-16T23:36:39.861Z,0.42
2022-12-16T23:42:00.646Z,0.28
2022-12-16T23:47:21.229Z,1.04
2022-12-16T23:52:42.074Z,0.34
2022-12-16T23:58:02.656Z,0.95
